sensor_id;sensor_type;location;lat;lon;timestamp;P1;durP1;ratioP1;P2;durP2;ratioP2
1577;SDS011;57623;53.608;10.004;2023-04-25T00:00:24;6.80;;;5.23;;
1577;SDS011;57623;53.608;10.004;2023-04-25T00:02:52;7.80;;;5.00;;
1577;SDS011;57623;53.608;10.004;2023-04-25T00:05:22;7.10;;;5.17;;
1577;SDS011;57623;53.608;10.004;2023-04-25T00:07:50;8.23;;;4.90;;
1577;SDS011;57623;53.608;10.004;2023-04-25T00:10:19;6.63;;;5.00;;
1577;SDS011;57623;53.608;10.004;2023-04-25T00:12:47;7.57;;;5.00;;
1577;SDS011;57623;53.608;10.004;2023-04-25T00:15:16;7.93;;;5.70;;
1577;SDS011;57623;53.608;10.004;2023-04-25T00:17:44;8.53;;;5.60;;
1577;SDS011;57623;53.608;10.004;2023-04-25T00:20:12;5.73;;;5.07;;
1577;SDS011;57623;53.608;10.004;2023-04-25T00:22:41;8.67;;;4.80;;
1577;SDS011;57623;53.608;10.004;2023-04-25T00:25:09;6.60;;;5.10;;
1577;SDS011;57623;53.608;10.004;2023-04-25T00:27:37;7.53;;;4.63;;
1577;SDS011;57623;53.608;10.004;2023-04-25T00:30:05;7.33;;;4.53;;
1577;SDS011;57623;53.608;10.004;2023-04-25T00:32:35;13.33;;;6.07;;
1577;SDS011;57623;53.608;10.004;2023-04-25T00:35:04;8.00;;;4.83;;
1577;SDS011;57623;53.608;10.004;2023-04-25T00:37:32;10.80;;;4.33;;
1577;SDS011;57623;53.608;10.004;2023-04-25T00:40:00;14.30;;;4.87;;
1577;SDS011;57623;53.608;10.004;2023-04-25T00:42:28;9.27;;;4.53;;
1577;SDS011;57623;53.608;10.004;2023-04-25T00:44:56;11.50;;;4.37;;
1577;SDS011;57623;53.608;10.004;2023-04-25T00:47:25;13.03;;;4.60;;
1577;SDS011;57623;53.608;10.004;2023-04-25T00:49:55;9.17;;;4.33;;
1577;SDS011;57623;53.608;10.004;2023-04-25T00:52:23;14.47;;;5.30;;
1577;SDS011;57623;53.608;10.004;2023-04-25T00:54:51;10.77;;;4.00;;
1577;SDS011;57623;53.608;10.004;2023-04-25T00:57:19;11.97;;;4.47;;
1577;SDS011;57623;53.608;10.004;2023-04-25T00:59:47;13.93;;;4.33;;
1577;SDS011;57623;53.608;10.004;2023-04-25T01:02:18;11.30;;;4.53;;
1577;SDS011;57623;53.608;10.004;2023-04-25T01:04:48;16.77;;;4.47;;
1577;SDS011;57623;53.608;10.004;2023-04-25T01:07:17;9.67;;;4.37;;
1577;SDS011;57623;53.608;10.004;2023-04-25T01:09:45;9.87;;;4.17;;
1577;SDS011;57623;53.608;10.004;2023-04-25T01:12:13;13.00;;;4.60;;
1577;SDS011;57623;53.608;10.004;2023-04-25T01:14:41;9.57;;;4.23;;
1577;SDS011;57623;53.608;10.004;2023-04-25T01:17:09;14.67;;;4.40;;
1577;SDS011;57623;53.608;10.004;2023-04-25T01:19:37;12.60;;;5.00;;
1577;SDS011;57623;53.608;10.004;2023-04-25T01:22:07;12.67;;;5.37;;
1577;SDS011;57623;53.608;10.004;2023-04-25T01:24:36;11.87;;;4.80;;
1577;SDS011;57623;53.608;10.004;2023-04-25T01:27:04;16.00;;;5.10;;
1577;SDS011;57623;53.608;10.004;2023-04-25T01:33:14;15.33;;;5.10;;
1577;SDS011;57623;53.608;10.004;2023-04-25T01:35:43;13.33;;;4.83;;
1577;SDS011;57623;53.608;10.004;2023-04-25T01:38:13;9.97;;;5.00;;
1577;SDS011;57623;53.608;10.004;2023-04-25T01:40:41;14.63;;;4.87;;
1577;SDS011;57623;53.608;10.004;2023-04-25T01:43:11;16.67;;;4.70;;
1577;SDS011;57623;53.608;10.004;2023-04-25T01:45:40;16.93;;;5.47;;
1577;SDS011;57623;53.608;10.004;2023-04-25T01:48:08;11.27;;;4.83;;
1577;SDS011;57623;53.608;10.004;2023-04-25T01:50:37;12.37;;;5.73;;
1577;SDS011;57623;53.608;10.004;2023-04-25T01:53:05;17.43;;;5.10;;
1577;SDS011;57623;53.608;10.004;2023-04-25T01:55:35;10.33;;;4.50;;
1577;SDS011;57623;53.608;10.004;2023-04-25T01:58:03;9.97;;;4.60;;
1577;SDS011;57623;53.608;10.004;2023-04-25T02:00:35;13.27;;;4.67;;
1577;SDS011;57623;53.608;10.004;2023-04-25T02:03:05;13.00;;;4.20;;
1577;SDS011;57623;53.608;10.004;2023-04-25T02:05:36;15.80;;;5.00;;
1577;SDS011;57623;53.608;10.004;2023-04-25T02:08:04;12.53;;;4.77;;
1577;SDS011;57623;53.608;10.004;2023-04-25T02:14:15;10.30;;;4.83;;
1577;SDS011;57623;53.608;10.004;2023-04-25T02:16:43;13.40;;;4.87;;
1577;SDS011;57623;53.608;10.004;2023-04-25T02:19:12;11.03;;;4.70;;
1577;SDS011;57623;53.608;10.004;2023-04-25T02:21:40;11.00;;;4.50;;
1577;SDS011;57623;53.608;10.004;2023-04-25T02:24:08;10.77;;;3.80;;
1577;SDS011;57623;53.608;10.004;2023-04-25T02:26:36;11.20;;;4.20;;
1577;SDS011;57623;53.608;10.004;2023-04-25T02:29:04;10.47;;;4.37;;
1577;SDS011;57623;53.608;10.004;2023-04-25T02:31:34;8.03;;;4.10;;
1577;SDS011;57623;53.608;10.004;2023-04-25T02:34:02;13.23;;;4.93;;
1577;SDS011;57623;53.608;10.004;2023-04-25T02:36:30;10.50;;;4.63;;
1577;SDS011;57623;53.608;10.004;2023-04-25T02:39:00;11.77;;;4.43;;
1577;SDS011;57623;53.608;10.004;2023-04-25T02:41:29;11.30;;;4.67;;
1577;SDS011;57623;53.608;10.004;2023-04-25T02:43:57;13.37;;;4.77;;
1577;SDS011;57623;53.608;10.004;2023-04-25T02:46:24;10.63;;;4.50;;
1577;SDS011;57623;53.608;10.004;2023-04-25T02:49:05;17.30;;;4.83;;
1577;SDS011;57623;53.608;10.004;2023-04-25T02:51:33;11.80;;;4.67;;
1577;SDS011;57623;53.608;10.004;2023-04-25T02:54:01;12.17;;;4.60;;
1577;SDS011;57623;53.608;10.004;2023-04-25T02:56:30;9.40;;;3.87;;
1577;SDS011;57623;53.608;10.004;2023-04-25T02:58:57;12.67;;;4.27;;
1577;SDS011;57623;53.608;10.004;2023-04-25T03:01:29;8.67;;;3.90;;
1577;SDS011;57623;53.608;10.004;2023-04-25T03:03:56;10.10;;;4.00;;
1577;SDS011;57623;53.608;10.004;2023-04-25T03:06:26;11.87;;;4.30;;
1577;SDS011;57623;53.608;10.004;2023-04-25T03:08:54;10.93;;;4.13;;
1577;SDS011;57623;53.608;10.004;2023-04-25T03:11:22;7.57;;;3.90;;
1577;SDS011;57623;53.608;10.004;2023-04-25T03:18:00;12.73;;;4.43;;
1577;SDS011;57623;53.608;10.004;2023-04-25T03:48:22;7.60;;;3.87;;
1577;SDS011;57623;53.608;10.004;2023-04-25T03:50:51;7.97;;;3.83;;
1577;SDS011;57623;53.608;10.004;2023-04-25T03:53:19;10.57;;;4.00;;
1577;SDS011;57623;53.608;10.004;2023-04-25T03:55:48;13.50;;;4.30;;
1577;SDS011;57623;53.608;10.004;2023-04-25T03:58:15;9.20;;;3.70;;
1577;SDS011;57623;53.608;10.004;2023-04-25T04:00:43;7.80;;;3.63;;
1577;SDS011;57623;53.608;10.004;2023-04-25T04:03:11;10.77;;;3.60;;
1577;SDS011;57623;53.608;10.004;2023-04-25T04:05:41;8.60;;;4.30;;
1577;SDS011;57623;53.608;10.004;2023-04-25T04:08:09;17.10;;;3.77;;
1577;SDS011;57623;53.608;10.004;2023-04-25T04:10:37;11.97;;;3.30;;
1577;SDS011;57623;53.608;10.004;2023-04-25T04:13:21;12.73;;;3.90;;
1577;SDS011;57623;53.608;10.004;2023-04-25T04:15:49;9.40;;;3.70;;
1577;SDS011;57623;53.608;10.004;2023-04-25T04:18:17;12.33;;;3.57;;
1577;SDS011;57623;53.608;10.004;2023-04-25T04:20:46;6.03;;;3.20;;
1577;SDS011;57623;53.608;10.004;2023-04-25T04:23:14;12.00;;;4.37;;
1577;SDS011;57623;53.608;10.004;2023-04-25T04:25:42;7.77;;;3.67;;
1577;SDS011;57623;53.608;10.004;2023-04-25T04:28:10;6.30;;;3.23;;
1577;SDS011;57623;53.608;10.004;2023-04-25T04:30:39;9.17;;;3.60;;
1577;SDS011;57623;53.608;10.004;2023-04-25T04:33:07;14.53;;;3.50;;
1577;SDS011;57623;53.608;10.004;2023-04-25T04:35:35;7.73;;;3.97;;
1577;SDS011;57623;53.608;10.004;2023-04-25T04:38:04;6.20;;;3.17;;
1577;SDS011;57623;53.608;10.004;2023-04-25T04:40:32;12.77;;;3.20;;
1577;SDS011;57623;53.608;10.004;2023-04-25T04:43:01;10.07;;;3.03;;
1577;SDS011;57623;53.608;10.004;2023-04-25T04:45:29;9.70;;;3.13;;
1577;SDS011;57623;53.608;10.004;2023-04-25T04:47:57;10.40;;;3.30;;
1577;SDS011;57623;53.608;10.004;2023-04-25T04:50:25;6.17;;;2.73;;
1577;SDS011;57623;53.608;10.004;2023-04-25T04:52:53;10.43;;;3.40;;
1577;SDS011;57623;53.608;10.004;2023-04-25T04:55:23;9.10;;;4.00;;
1577;SDS011;57623;53.608;10.004;2023-04-25T04:57:51;7.07;;;3.50;;
1577;SDS011;57623;53.608;10.004;2023-04-25T05:00:19;6.97;;;3.90;;
1577;SDS011;57623;53.608;10.004;2023-04-25T05:02:48;8.13;;;3.17;;
1577;SDS011;57623;53.608;10.004;2023-04-25T05:05:16;7.83;;;3.10;;
1577;SDS011;57623;53.608;10.004;2023-04-25T05:07:44;5.00;;;2.90;;
1577;SDS011;57623;53.608;10.004;2023-04-25T05:10:12;13.27;;;4.00;;
1577;SDS011;57623;53.608;10.004;2023-04-25T05:12:41;11.87;;;3.20;;
1577;SDS011;57623;53.608;10.004;2023-04-25T05:15:09;6.37;;;3.07;;
1577;SDS011;57623;53.608;10.004;2023-04-25T05:17:37;9.37;;;3.70;;
1577;SDS011;57623;53.608;10.004;2023-04-25T05:20:06;9.17;;;2.90;;
1577;SDS011;57623;53.608;10.004;2023-04-25T05:22:35;11.13;;;3.23;;
1577;SDS011;57623;53.608;10.004;2023-04-25T05:25:03;8.83;;;3.30;;
1577;SDS011;57623;53.608;10.004;2023-04-25T05:27:33;10.77;;;3.33;;
1577;SDS011;57623;53.608;10.004;2023-04-25T05:30:02;8.20;;;3.43;;
1577;SDS011;57623;53.608;10.004;2023-04-25T05:32:32;8.10;;;3.27;;
1577;SDS011;57623;53.608;10.004;2023-04-25T05:34:59;6.10;;;3.47;;
1577;SDS011;57623;53.608;10.004;2023-04-25T05:37:27;4.80;;;2.90;;
1577;SDS011;57623;53.608;10.004;2023-04-25T05:39:56;7.80;;;3.17;;
1577;SDS011;57623;53.608;10.004;2023-04-25T05:42:24;7.70;;;3.77;;
1577;SDS011;57623;53.608;10.004;2023-04-25T05:44:52;9.13;;;3.20;;
1577;SDS011;57623;53.608;10.004;2023-04-25T05:47:22;7.63;;;3.27;;
1577;SDS011;57623;53.608;10.004;2023-04-25T05:49:49;8.67;;;3.20;;
1577;SDS011;57623;53.608;10.004;2023-04-25T05:52:17;7.90;;;3.40;;
1577;SDS011;57623;53.608;10.004;2023-04-25T05:54:46;8.07;;;3.53;;
1577;SDS011;57623;53.608;10.004;2023-04-25T05:57:20;9.03;;;3.13;;
1577;SDS011;57623;53.608;10.004;2023-04-25T05:59:49;8.23;;;3.63;;
1577;SDS011;57623;53.608;10.004;2023-04-25T06:02:17;8.60;;;3.20;;
1577;SDS011;57623;53.608;10.004;2023-04-25T06:04:48;5.23;;;3.20;;
1577;SDS011;57623;53.608;10.004;2023-04-25T06:07:18;8.20;;;3.30;;
1577;SDS011;57623;53.608;10.004;2023-04-25T06:09:46;5.63;;;3.20;;
1577;SDS011;57623;53.608;10.004;2023-04-25T06:12:14;6.87;;;3.60;;
1577;SDS011;57623;53.608;10.004;2023-04-25T06:14:42;9.93;;;3.83;;
1577;SDS011;57623;53.608;10.004;2023-04-25T06:17:10;10.17;;;3.30;;
1577;SDS011;57623;53.608;10.004;2023-04-25T06:19:38;7.53;;;3.47;;
1577;SDS011;57623;53.608;10.004;2023-04-25T06:22:07;9.20;;;3.37;;
1577;SDS011;57623;53.608;10.004;2023-04-25T06:24:35;11.23;;;3.40;;
1577;SDS011;57623;53.608;10.004;2023-04-25T06:27:03;8.03;;;3.13;;
1577;SDS011;57623;53.608;10.004;2023-04-25T06:29:31;11.83;;;3.30;;
1577;SDS011;57623;53.608;10.004;2023-04-25T06:31:59;7.07;;;2.77;;
1577;SDS011;57623;53.608;10.004;2023-04-25T06:34:27;6.80;;;3.20;;
1577;SDS011;57623;53.608;10.004;2023-04-25T06:36:55;10.33;;;3.20;;
1577;SDS011;57623;53.608;10.004;2023-04-25T06:39:24;8.33;;;3.10;;
1577;SDS011;57623;53.608;10.004;2023-04-25T06:41:52;8.30;;;3.00;;
1577;SDS011;57623;53.608;10.004;2023-04-25T06:44:20;7.53;;;3.50;;
1577;SDS011;57623;53.608;10.004;2023-04-25T06:46:49;7.13;;;3.03;;
1577;SDS011;57623;53.608;10.004;2023-04-25T06:49:17;8.70;;;3.27;;
1577;SDS011;57623;53.608;10.004;2023-04-25T06:51:45;6.70;;;3.33;;
1577;SDS011;57623;53.608;10.004;2023-04-25T06:54:13;5.13;;;3.30;;
1577;SDS011;57623;53.608;10.004;2023-04-25T06:56:42;5.57;;;2.77;;
1577;SDS011;57623;53.608;10.004;2023-04-25T06:59:10;6.67;;;2.97;;
1577;SDS011;57623;53.608;10.004;2023-04-25T07:01:38;8.80;;;2.70;;
1577;SDS011;57623;53.608;10.004;2023-04-25T07:04:06;4.93;;;2.70;;
1577;SDS011;57623;53.608;10.004;2023-04-25T07:06:34;7.80;;;3.70;;
1577;SDS011;57623;53.608;10.004;2023-04-25T07:09:04;6.93;;;3.23;;
1577;SDS011;57623;53.608;10.004;2023-04-25T07:11:32;7.13;;;2.30;;
1577;SDS011;57623;53.608;10.004;2023-04-25T07:14:01;7.00;;;3.13;;
1577;SDS011;57623;53.608;10.004;2023-04-25T07:16:29;4.77;;;2.63;;
1577;SDS011;57623;53.608;10.004;2023-04-25T07:18:57;4.90;;;2.50;;
1577;SDS011;57623;53.608;10.004;2023-04-25T07:21:26;6.40;;;2.83;;
1577;SDS011;57623;53.608;10.004;2023-04-25T07:23:54;9.10;;;3.33;;
1577;SDS011;57623;53.608;10.004;2023-04-25T07:26:22;5.10;;;2.50;;
1577;SDS011;57623;53.608;10.004;2023-04-25T07:28:49;6.70;;;2.70;;
1577;SDS011;57623;53.608;10.004;2023-04-25T07:31:19;6.40;;;2.53;;
1577;SDS011;57623;53.608;10.004;2023-04-25T07:33:48;6.50;;;2.33;;
1577;SDS011;57623;53.608;10.004;2023-04-25T07:36:16;7.20;;;2.50;;
1577;SDS011;57623;53.608;10.004;2023-04-25T07:38:44;7.53;;;2.73;;
1577;SDS011;57623;53.608;10.004;2023-04-25T07:41:12;10.43;;;3.17;;
1577;SDS011;57623;53.608;10.004;2023-04-25T07:43:40;4.90;;;2.20;;
1577;SDS011;57623;53.608;10.004;2023-04-25T07:46:07;5.00;;;2.23;;
1577;SDS011;57623;53.608;10.004;2023-04-25T07:48:37;4.90;;;2.07;;
1577;SDS011;57623;53.608;10.004;2023-04-25T07:51:05;7.43;;;2.27;;
1577;SDS011;57623;53.608;10.004;2023-04-25T07:53:33;6.87;;;4.03;;
1577;SDS011;57623;53.608;10.004;2023-04-25T07:56:03;5.30;;;2.20;;
1577;SDS011;57623;53.608;10.004;2023-04-25T07:58:32;6.90;;;2.53;;
1577;SDS011;57623;53.608;10.004;2023-04-25T08:01:00;4.33;;;2.10;;
1577;SDS011;57623;53.608;10.004;2023-04-25T08:03:27;4.10;;;2.50;;
1577;SDS011;57623;53.608;10.004;2023-04-25T08:06:00;10.80;;;2.47;;
1577;SDS011;57623;53.608;10.004;2023-04-25T08:08:32;6.10;;;2.33;;
1577;SDS011;57623;53.608;10.004;2023-04-25T08:11:01;8.13;;;2.47;;
1577;SDS011;57623;53.608;10.004;2023-04-25T08:13:29;8.67;;;2.70;;
1577;SDS011;57623;53.608;10.004;2023-04-25T08:15:56;11.00;;;2.50;;
1577;SDS011;57623;53.608;10.004;2023-04-25T08:18:25;9.40;;;2.60;;
1577;SDS011;57623;53.608;10.004;2023-04-25T08:20:53;7.63;;;2.30;;
1577;SDS011;57623;53.608;10.004;2023-04-25T08:23:22;5.63;;;1.93;;
1577;SDS011;57623;53.608;10.004;2023-04-25T08:25:50;4.50;;;2.33;;
1577;SDS011;57623;53.608;10.004;2023-04-25T08:28:19;5.50;;;2.37;;
1577;SDS011;57623;53.608;10.004;2023-04-25T08:30:47;5.87;;;2.20;;
1577;SDS011;57623;53.608;10.004;2023-04-25T08:33:15;5.40;;;2.33;;
1577;SDS011;57623;53.608;10.004;2023-04-25T08:35:44;5.70;;;2.10;;
1577;SDS011;57623;53.608;10.004;2023-04-25T08:38:12;2.83;;;1.70;;
1577;SDS011;57623;53.608;10.004;2023-04-25T08:40:41;11.03;;;2.47;;
1577;SDS011;57623;53.608;10.004;2023-04-25T08:43:12;5.07;;;1.90;;
1577;SDS011;57623;53.608;10.004;2023-04-25T08:45:41;7.67;;;2.83;;
1577;SDS011;57623;53.608;10.004;2023-04-25T08:48:11;6.17;;;2.40;;
1577;SDS011;57623;53.608;10.004;2023-04-25T08:50:40;4.30;;;1.93;;
1577;SDS011;57623;53.608;10.004;2023-04-25T08:53:12;8.67;;;2.70;;
1577;SDS011;57623;53.608;10.004;2023-04-25T08:55:46;5.63;;;2.23;;
1577;SDS011;57623;53.608;10.004;2023-04-25T08:58:15;4.87;;;2.33;;
1577;SDS011;57623;53.608;10.004;2023-04-25T09:00:45;6.37;;;1.90;;
1577;SDS011;57623;53.608;10.004;2023-04-25T09:03:13;11.23;;;2.30;;
1577;SDS011;57623;53.608;10.004;2023-04-25T09:05:42;5.03;;;2.07;;
1577;SDS011;57623;53.608;10.004;2023-04-25T09:08:10;5.60;;;2.10;;
1577;SDS011;57623;53.608;10.004;2023-04-25T09:10:40;5.60;;;2.03;;
1577;SDS011;57623;53.608;10.004;2023-04-25T09:13:10;4.97;;;1.83;;
1577;SDS011;57623;53.608;10.004;2023-04-25T09:15:47;5.43;;;1.80;;
1577;SDS011;57623;53.608;10.004;2023-04-25T09:18:23;3.47;;;1.90;;
1577;SDS011;57623;53.608;10.004;2023-04-25T09:20:56;5.50;;;1.40;;
1577;SDS011;57623;53.608;10.004;2023-04-25T09:23:40;6.20;;;2.10;;
1577;SDS011;57623;53.608;10.004;2023-04-25T09:26:09;5.47;;;1.60;;
1577;SDS011;57623;53.608;10.004;2023-04-25T09:28:38;6.90;;;1.80;;
1577;SDS011;57623;53.608;10.004;2023-04-25T09:31:07;6.97;;;3.40;;
1577;SDS011;57623;53.608;10.004;2023-04-25T09:33:37;5.77;;;1.67;;
1577;SDS011;57623;53.608;10.004;2023-04-25T09:36:08;5.23;;;1.83;;
1577;SDS011;57623;53.608;10.004;2023-04-25T09:38:39;5.83;;;2.07;;
1577;SDS011;57623;53.608;10.004;2023-04-25T09:41:08;7.60;;;2.20;;
1577;SDS011;57623;53.608;10.004;2023-04-25T09:43:37;4.93;;;2.07;;
1577;SDS011;57623;53.608;10.004;2023-04-25T09:46:07;4.57;;;1.80;;
1577;SDS011;57623;53.608;10.004;2023-04-25T09:48:37;6.80;;;2.63;;
1577;SDS011;57623;53.608;10.004;2023-04-25T09:51:06;4.50;;;2.13;;
1577;SDS011;57623;53.608;10.004;2023-04-25T09:53:35;5.40;;;2.07;;
1577;SDS011;57623;53.608;10.004;2023-04-25T09:56:04;6.27;;;2.00;;
1577;SDS011;57623;53.608;10.004;2023-04-25T09:58:34;6.63;;;2.27;;
1577;SDS011;57623;53.608;10.004;2023-04-25T10:01:05;2.87;;;1.80;;
1577;SDS011;57623;53.608;10.004;2023-04-25T10:03:34;4.93;;;1.77;;
1577;SDS011;57623;53.608;10.004;2023-04-25T10:06:04;5.60;;;2.27;;
1577;SDS011;57623;53.608;10.004;2023-04-25T10:08:36;5.43;;;1.97;;
1577;SDS011;57623;53.608;10.004;2023-04-25T10:11:05;4.27;;;2.10;;
1577;SDS011;57623;53.608;10.004;2023-04-25T10:13:34;4.10;;;2.20;;
1577;SDS011;57623;53.608;10.004;2023-04-25T10:16:04;5.13;;;1.90;;
1577;SDS011;57623;53.608;10.004;2023-04-25T10:18:32;3.63;;;1.97;;
1577;SDS011;57623;53.608;10.004;2023-04-25T10:21:01;5.00;;;1.70;;
1577;SDS011;57623;53.608;10.004;2023-04-25T10:23:31;3.80;;;1.90;;
1577;SDS011;57623;53.608;10.004;2023-04-25T10:26:00;3.30;;;1.50;;
1577;SDS011;57623;53.608;10.004;2023-04-25T10:28:29;4.73;;;1.87;;
1577;SDS011;57623;53.608;10.004;2023-04-25T10:31:18;6.70;;;2.00;;
1577;SDS011;57623;53.608;10.004;2023-04-25T10:33:46;5.70;;;1.67;;
1577;SDS011;57623;53.608;10.004;2023-04-25T10:36:21;5.97;;;1.80;;
1577;SDS011;57623;53.608;10.004;2023-04-25T10:38:50;10.50;;;2.17;;
1577;SDS011;57623;53.608;10.004;2023-04-25T10:41:20;3.80;;;1.70;;
1577;SDS011;57623;53.608;10.004;2023-04-25T10:43:49;7.47;;;2.70;;
1577;SDS011;57623;53.608;10.004;2023-04-25T10:46:28;8.17;;;2.17;;
1577;SDS011;57623;53.608;10.004;2023-04-25T10:48:57;4.00;;;1.57;;
1577;SDS011;57623;53.608;10.004;2023-04-25T10:51:26;5.37;;;1.97;;
1577;SDS011;57623;53.608;10.004;2023-04-25T10:54:08;5.13;;;1.60;;
1577;SDS011;57623;53.608;10.004;2023-04-25T10:56:37;5.23;;;1.93;;
1577;SDS011;57623;53.608;10.004;2023-04-25T10:59:06;4.40;;;1.30;;
1577;SDS011;57623;53.608;10.004;2023-04-25T11:01:38;3.90;;;1.50;;
1577;SDS011;57623;53.608;10.004;2023-04-25T11:04:19;4.57;;;1.67;;
1577;SDS011;57623;53.608;10.004;2023-04-25T11:06:55;4.47;;;1.57;;
1577;SDS011;57623;53.608;10.004;2023-04-25T11:09:33;4.30;;;1.40;;
1577;SDS011;57623;53.608;10.004;2023-04-25T11:12:02;5.80;;;1.73;;
1577;SDS011;57623;53.608;10.004;2023-04-25T11:14:30;4.07;;;1.97;;
1577;SDS011;57623;53.608;10.004;2023-04-25T11:16:59;3.83;;;1.60;;
1577;SDS011;57623;53.608;10.004;2023-04-25T11:19:31;4.73;;;1.80;;
1577;SDS011;57623;53.608;10.004;2023-04-25T11:21:59;7.57;;;1.50;;
1577;SDS011;57623;53.608;10.004;2023-04-25T11:24:28;3.03;;;1.47;;
1577;SDS011;57623;53.608;10.004;2023-04-25T11:26:57;5.10;;;1.50;;
1577;SDS011;57623;53.608;10.004;2023-04-25T11:29:26;4.47;;;1.83;;
1577;SDS011;57623;53.608;10.004;2023-04-25T11:31:54;9.27;;;6.87;;
1577;SDS011;57623;53.608;10.004;2023-04-25T11:34:33;10.73;;;6.73;;
1577;SDS011;57623;53.608;10.004;2023-04-25T11:37:01;6.27;;;2.33;;
1577;SDS011;57623;53.608;10.004;2023-04-25T11:39:30;2.90;;;1.80;;
1577;SDS011;57623;53.608;10.004;2023-04-25T11:41:58;4.20;;;1.30;;
1577;SDS011;57623;53.608;10.004;2023-04-25T11:44:31;3.63;;;1.33;;
1577;SDS011;57623;53.608;10.004;2023-04-25T11:47:00;5.10;;;1.60;;
1577;SDS011;57623;53.608;10.004;2023-04-25T11:49:30;4.77;;;1.50;;
1577;SDS011;57623;53.608;10.004;2023-04-25T11:51:59;3.20;;;1.70;;
1577;SDS011;57623;53.608;10.004;2023-04-25T11:54:27;4.03;;;1.37;;
1577;SDS011;57623;53.608;10.004;2023-04-25T11:56:55;4.30;;;1.53;;
1577;SDS011;57623;53.608;10.004;2023-04-25T11:59:24;4.00;;;1.40;;
1577;SDS011;57623;53.608;10.004;2023-04-25T12:01:53;7.13;;;1.57;;
1577;SDS011;57623;53.608;10.004;2023-04-25T12:04:22;5.43;;;1.40;;
1577;SDS011;57623;53.608;10.004;2023-04-25T12:06:51;3.90;;;1.97;;
1577;SDS011;57623;53.608;10.004;2023-04-25T12:09:28;3.07;;;1.30;;
1577;SDS011;57623;53.608;10.004;2023-04-25T12:11:57;2.10;;;0.97;;
1577;SDS011;57623;53.608;10.004;2023-04-25T12:14:29;4.20;;;1.13;;
1577;SDS011;57623;53.608;10.004;2023-04-25T12:16:58;3.03;;;1.00;;
1577;SDS011;57623;53.608;10.004;2023-04-25T12:19:32;2.07;;;0.83;;
1577;SDS011;57623;53.608;10.004;2023-04-25T12:22:00;3.90;;;1.33;;
1577;SDS011;57623;53.608;10.004;2023-04-25T12:24:33;3.27;;;1.03;;
1577;SDS011;57623;53.608;10.004;2023-04-25T12:27:04;2.30;;;0.97;;
1577;SDS011;57623;53.608;10.004;2023-04-25T12:29:34;3.10;;;1.40;;
1577;SDS011;57623;53.608;10.004;2023-04-25T12:32:05;2.70;;;1.00;;
1577;SDS011;57623;53.608;10.004;2023-04-25T12:34:33;2.87;;;1.50;;
1577;SDS011;57623;53.608;10.004;2023-04-25T12:37:02;4.20;;;1.10;;
1577;SDS011;57623;53.608;10.004;2023-04-25T12:39:32;3.73;;;1.47;;
1577;SDS011;57623;53.608;10.004;2023-04-25T12:42:00;3.93;;;1.17;;
1577;SDS011;57623;53.608;10.004;2023-04-25T12:44:30;3.73;;;1.30;;
1577;SDS011;57623;53.608;10.004;2023-04-25T12:46:58;2.60;;;1.43;;
1577;SDS011;57623;53.608;10.004;2023-04-25T12:49:26;3.70;;;1.37;;
1577;SDS011;57623;53.608;10.004;2023-04-25T12:51:54;4.60;;;1.30;;
1577;SDS011;57623;53.608;10.004;2023-04-25T12:54:22;2.90;;;1.67;;
1577;SDS011;57623;53.608;10.004;2023-04-25T12:56:52;2.70;;;1.20;;
1577;SDS011;57623;53.608;10.004;2023-04-25T12:59:21;2.80;;;1.50;;
1577;SDS011;57623;53.608;10.004;2023-04-25T13:01:49;4.63;;;1.83;;
1577;SDS011;57623;53.608;10.004;2023-04-25T13:04:17;2.17;;;1.40;;
1577;SDS011;57623;53.608;10.004;2023-04-25T13:06:47;2.67;;;1.60;;
1577;SDS011;57623;53.608;10.004;2023-04-25T13:09:15;3.93;;;2.00;;
1577;SDS011;57623;53.608;10.004;2023-04-25T13:11:43;3.53;;;1.63;;
1577;SDS011;57623;53.608;10.004;2023-04-25T13:14:13;3.90;;;1.60;;
1577;SDS011;57623;53.608;10.004;2023-04-25T13:16:41;3.27;;;1.73;;
1577;SDS011;57623;53.608;10.004;2023-04-25T13:19:12;2.20;;;1.20;;
1577;SDS011;57623;53.608;10.004;2023-04-25T13:21:40;2.20;;;1.20;;
1577;SDS011;57623;53.608;10.004;2023-04-25T13:24:08;4.40;;;1.47;;
1577;SDS011;57623;53.608;10.004;2023-04-25T13:26:38;2.50;;;1.60;;
1577;SDS011;57623;53.608;10.004;2023-04-25T13:29:06;4.10;;;1.70;;
1577;SDS011;57623;53.608;10.004;2023-04-25T13:31:36;6.87;;;1.77;;
1577;SDS011;57623;53.608;10.004;2023-04-25T13:34:04;3.47;;;1.67;;
1577;SDS011;57623;53.608;10.004;2023-04-25T13:36:32;4.43;;;1.70;;
1577;SDS011;57623;53.608;10.004;2023-04-25T13:39:00;5.10;;;2.33;;
1577;SDS011;57623;53.608;10.004;2023-04-25T13:41:30;3.60;;;1.73;;
1577;SDS011;57623;53.608;10.004;2023-04-25T13:43:58;4.17;;;1.93;;
1577;SDS011;57623;53.608;10.004;2023-04-25T13:46:26;3.80;;;1.50;;
1577;SDS011;57623;53.608;10.004;2023-04-25T13:49:13;4.60;;;2.00;;
1577;SDS011;57623;53.608;10.004;2023-04-25T13:51:41;2.57;;;2.37;;
1577;SDS011;57623;53.608;10.004;2023-04-25T13:54:09;4.03;;;2.23;;
1577;SDS011;57623;53.608;10.004;2023-04-25T13:56:37;5.03;;;1.93;;
1577;SDS011;57623;53.608;10.004;2023-04-25T13:59:08;4.30;;;1.80;;
1577;SDS011;57623;53.608;10.004;2023-04-25T14:01:36;5.27;;;1.67;;
1577;SDS011;57623;53.608;10.004;2023-04-25T14:04:04;4.40;;;1.50;;
1577;SDS011;57623;53.608;10.004;2023-04-25T14:06:33;3.90;;;1.40;;
1577;SDS011;57623;53.608;10.004;2023-04-25T14:09:01;2.40;;;1.50;;
1577;SDS011;57623;53.608;10.004;2023-04-25T14:11:30;5.20;;;2.13;;
1577;SDS011;57623;53.608;10.004;2023-04-25T14:13:58;2.80;;;1.50;;
1577;SDS011;57623;53.608;10.004;2023-04-25T14:16:26;2.23;;;1.70;;
1577;SDS011;57623;53.608;10.004;2023-04-25T14:18:55;3.77;;;2.30;;
1577;SDS011;57623;53.608;10.004;2023-04-25T14:21:24;4.43;;;1.60;;
1577;SDS011;57623;53.608;10.004;2023-04-25T14:23:54;4.03;;;1.80;;
1577;SDS011;57623;53.608;10.004;2023-04-25T14:26:22;3.83;;;1.30;;
1577;SDS011;57623;53.608;10.004;2023-04-25T14:28:50;5.80;;;1.80;;
1577;SDS011;57623;53.608;10.004;2023-04-25T14:31:19;2.73;;;2.03;;
1577;SDS011;57623;53.608;10.004;2023-04-25T14:33:47;4.40;;;1.90;;
1577;SDS011;57623;53.608;10.004;2023-04-25T14:36:16;2.50;;;1.10;;
1577;SDS011;57623;53.608;10.004;2023-04-25T14:38:44;5.23;;;1.40;;
1577;SDS011;57623;53.608;10.004;2023-04-25T14:41:14;3.87;;;1.67;;
1577;SDS011;57623;53.608;10.004;2023-04-25T14:43:42;4.60;;;1.67;;
1577;SDS011;57623;53.608;10.004;2023-04-25T14:46:11;2.50;;;1.60;;
1577;SDS011;57623;53.608;10.004;2023-04-25T14:48:39;5.30;;;1.50;;
1577;SDS011;57623;53.608;10.004;2023-04-25T14:51:07;5.47;;;1.40;;
1577;SDS011;57623;53.608;10.004;2023-04-25T14:53:35;4.33;;;1.30;;
1577;SDS011;57623;53.608;10.004;2023-04-25T14:56:03;3.50;;;1.20;;
1577;SDS011;57623;53.608;10.004;2023-04-25T14:58:33;5.53;;;1.67;;
1577;SDS011;57623;53.608;10.004;2023-04-25T15:01:01;2.20;;;1.40;;
1577;SDS011;57623;53.608;10.004;2023-04-25T15:03:29;3.27;;;1.30;;
1577;SDS011;57623;53.608;10.004;2023-04-25T15:05:58;3.63;;;1.60;;
1577;SDS011;57623;53.608;10.004;2023-04-25T15:08:26;2.87;;;1.53;;
1577;SDS011;57623;53.608;10.004;2023-04-25T15:10:54;3.93;;;1.73;;
1577;SDS011;57623;53.608;10.004;2023-04-25T15:13:22;4.90;;;1.80;;
1577;SDS011;57623;53.608;10.004;2023-04-25T15:15:52;5.00;;;1.73;;
1577;SDS011;57623;53.608;10.004;2023-04-25T15:18:20;4.40;;;2.00;;
1577;SDS011;57623;53.608;10.004;2023-04-25T15:20:50;4.03;;;1.70;;
1577;SDS011;57623;53.608;10.004;2023-04-25T15:23:19;2.93;;;1.53;;
1577;SDS011;57623;53.608;10.004;2023-04-25T15:25:49;4.13;;;1.77;;
1577;SDS011;57623;53.608;10.004;2023-04-25T15:28:18;2.40;;;1.60;;
1577;SDS011;57623;53.608;10.004;2023-04-25T15:30:47;3.10;;;1.70;;
1577;SDS011;57623;53.608;10.004;2023-04-25T15:33:16;4.73;;;1.53;;
1577;SDS011;57623;53.608;10.004;2023-04-25T15:35:44;3.17;;;1.50;;